Time;durP1;ratioP1;P1;durP2;ratioP2;P2;SDS_P1;SDS_P2;PMS_P1;PMS_P2;Temp;Humidity;BMP_temperature;BMP_pressure;BME280_temperature;BME280_humidity;BME280_pressure;Samples;Min_cycle;Max_cycle;Signal;HPM_P1;HPM_P2
2022/01/13 00:01:24;;;;;;;35.33;4.05;;;;;;;;;;5075654;28;20032;-70
2022/01/13 00:03:50;;;;;;;14.90;3.08;;;;;;;;;;5074365;28;20418;-67
2022/01/13 00:06:16;;;;;;;14.60;3.78;;;;;;;;;;5075384;28;20542;-69
2022/01/13 00:08:42;;;;;;;9.38;3.38;;;;;;;;;;5075434;28;20066;-69
2022/01/13 00:11:08;;;;;;;8.52;2.88;;;;;;;;;;5075203;28;20026;-68
2022/01/13 00:13:47;;;;;;;6.97;2.90;;;;;;;;;;5075437;28;20027;-68
2022/01/13 00:22:00;;;;;;;5.50;2.65;;;;;;;;;;5036916;28;20127;-70
2022/01/13 00:24:26;;;;;;;8.32;2.70;;;;;;;;;;5057462;28;20043;-71
2022/01/13 00:26:53;;;;;;;6.72;2.30;;;;;;;;;;5057144;28;20025;-71
2022/01/13 00:29:25;;;;;;;7.78;2.70;;;;;;;;;;5075447;28;20035;-71
2022/01/13 00:31:51;;;;;;;4.33;2.43;;;;;;;;;;5074959;28;20487;-68
2022/01/13 00:34:17;;;;;;;3.47;2.55;;;;;;;;;;5075309;28;20783;-69
2022/01/13 00:36:43;;;;;;;3.28;2.30;;;;;;;;;;5075207;28;20036;-70
2022/01/13 00:39:10;;;;;;;6.68;2.90;;;;;;;;;;5074967;28;20344;-69
2022/01/13 00:41:36;;;;;;;4.75;2.28;;;;;;;;;;5057210;28;20115;-70
2022/01/13 00:44:04;;;;;;;7.07;2.42;;;;;;;;;;5074859;28;20539;-71
2022/01/13 00:46:41;;;;;;;6.72;2.50;;;;;;;;;;5073897;28;20032;-68
2022/01/13 00:49:07;;;;;;;7.05;2.20;;;;;;;;;;5077597;28;20128;-71
2022/01/13 00:51:33;;;;;;;10.38;2.28;;;;;;;;;;5094803;28;20463;-69
2022/01/13 00:54:04;;;;;;;5.53;2.25;;;;;;;;;;5094962;28;20406;-69
2022/01/13 00:56:31;;;;;;;4.10;2.72;;;;;;;;;;5083817;28;20031;-69
2022/01/13 00:58:57;;;;;;;5.25;2.00;;;;;;;;;;5074545;28;20116;-70
2022/01/13 01:01:23;;;;;;;2.13;1.83;;;;;;;;;;5074376;28;20110;-70
2022/01/13 01:03:49;;;;;;;3.85;2.45;;;;;;;;;;5074717;28;20114;-71
2022/01/13 01:06:15;;;;;;;3.05;2.10;;;;;;;;;;5073063;28;20072;-71
2022/01/13 01:08:42;;;;;;;2.45;2.25;;;;;;;;;;5074373;28;20028;-70
2022/01/13 01:11:08;;;;;;;4.00;2.45;;;;;;;;;;5074413;28;20025;-70
2022/01/13 01:13:36;;;;;;;3.88;2.20;;;;;;;;;;5074357;28;20033;-71
2022/01/13 01:16:07;;;;;;;3.65;2.25;;;;;;;;;;5074197;28;20048;-69
2022/01/13 01:26:27;;;;;;;2.85;2.22;;;;;;;;;;5074028;28;20478;-66
2022/01/13 01:29:03;;;;;;;2.50;1.95;;;;;;;;;;5073919;28;20063;-67
2022/01/13 01:31:33;;;;;;;4.25;2.05;;;;;;;;;;5073911;28;20024;-70
2022/01/13 01:36:34;;;;;;;3.67;2.17;;;;;;;;;;5067238;28;20468;-67
2022/01/13 01:39:00;;;;;;;3.63;2.53;;;;;;;;;;5035888;28;20029;-68
2022/01/13 01:41:29;;;;;;;2.25;1.92;;;;;;;;;;5053934;28;20075;-69
2022/01/13 01:44:01;;;;;;;3.13;2.38;;;;;;;;;;5053738;28;20388;-69
2022/01/13 01:46:27;;;;;;;2.60;2.20;;;;;;;;;;5053731;28;20683;-66
2022/01/13 01:48:53;;;;;;;4.38;2.50;;;;;;;;;;5053962;28;20029;-69
2022/01/13 01:51:19;;;;;;;2.22;2.00;;;;;;;;;;5065208;28;20046;-70
2022/01/13 01:53:45;;;;;;;2.58;2.20;;;;;;;;;;5055470;28;20098;-70
2022/01/13 01:56:11;;;;;;;2.22;2.00;;;;;;;;;;5073523;28;20478;-69
2022/01/13 01:58:38;;;;;;;2.25;1.92;;;;;;;;;;5073410;28;20120;-66
2022/01/13 02:01:04;;;;;;;3.42;1.92;;;;;;;;;;5055694;28;20157;-64
2022/01/13 02:03:30;;;;;;;2.30;2.10;;;;;;;;;;5054962;28;20104;-68
2022/01/13 02:05:56;;;;;;;6.45;2.22;;;;;;;;;;5073270;28;20119;-71
2022/01/13 02:08:22;;;;;;;3.47;2.00;;;;;;;;;;5073565;28;20025;-67
2022/01/13 02:10:49;;;;;;;2.38;2.05;;;;;;;;;;5072271;28;20455;-71
2022/01/13 02:13:21;;;;;;;2.85;2.20;;;;;;;;;;5073635;28;20027;-70
2022/01/13 02:16:02;;;;;;;2.63;1.90;;;;;;;;;;5073815;28;20131;-69
2022/01/13 02:18:32;;;;;;;2.50;1.73;;;;;;;;;;5073281;28;20367;-67
2022/01/13 02:20:59;;;;;;;3.38;1.90;;;;;;;;;;5073121;28;20040;-67
2022/01/13 02:23:35;;;;;;;2.50;2.08;;;;;;;;;;5072064;28;20037;-69
2022/01/13 02:26:03;;;;;;;6.88;2.22;;;;;;;;;;5073463;28;20021;-68
2022/01/13 02:28:29;;;;;;;4.47;1.98;;;;;;;;;;5055572;28;20130;-66
2022/01/13 02:30:55;;;;;;;2.45;2.22;;;;;;;;;;5073272;28;20020;-69
2022/01/13 02:33:21;;;;;;;3.80;2.75;;;;;;;;;;5073378;28;20375;-69
2022/01/13 02:35:47;;;;;;;2.55;2.33;;;;;;;;;;5055226;28;20028;-68
2022/01/13 02:38:13;;;;;;;7.07;2.17;;;;;;;;;;5072011;28;20078;-67
2022/01/13 02:40:40;;;;;;;2.42;2.10;;;;;;;;;;5073064;28;20467;-69
2022/01/13 02:43:06;;;;;;;7.72;2.30;;;;;;;;;;5073069;28;20036;-70
2022/01/13 02:45:35;;;;;;;4.20;2.42;;;;;;;;;;5055083;28;20024;-69
2022/01/13 02:50:46;;;;;;;5.38;2.55;;;;;;;;;;5081867;28;20075;-69
2022/01/13 02:53:12;;;;;;;3.63;2.70;;;;;;;;;;5072469;28;20052;-69
2022/01/13 02:55:38;;;;;;;2.40;2.20;;;;;;;;;;5035031;28;20124;-69
2022/01/13 02:58:04;;;;;;;3.22;2.50;;;;;;;;;;5053018;28;20036;-67
2022/01/13 03:00:30;;;;;;;3.45;2.50;;;;;;;;;;5053071;28;20486;-67
2022/01/13 03:02:56;;;;;;;3.28;2.50;;;;;;;;;;5052667;28;20029;-67
2022/01/13 03:05:22;;;;;;;2.60;2.10;;;;;;;;;;5034967;28;20031;-68
2022/01/13 03:07:48;;;;;;;2.90;2.53;;;;;;;;;;5052813;28;20483;-69
2022/01/13 03:10:14;;;;;;;4.03;3.35;;;;;;;;;;5052929;28;20033;-70
2022/01/13 03:12:44;;;;;;;3.15;2.83;;;;;;;;;;5068334;28;20060;-70
2022/01/13 03:15:10;;;;;;;9.32;2.83;;;;;;;;;;5074958;28;20028;-71
2022/01/13 03:17:36;;;;;;;3.90;2.80;;;;;;;;;;5077061;28;20021;-66
2022/01/13 03:20:02;;;;;;;4.22;3.00;;;;;;;;;;5076883;28;20055;-70
2022/01/13 03:22:28;;;;;;;2.97;2.70;;;;;;;;;;5076723;28;20607;-66
2022/01/13 03:24:54;;;;;;;5.88;2.75;;;;;;;;;;5076380;28;20040;-66
2022/01/13 03:27:23;;;;;;;3.78;3.20;;;;;;;;;;5076633;28;20024;-70
2022/01/13 03:29:49;;;;;;;4.43;2.85;;;;;;;;;;5058696;28;20074;-71
2022/01/13 03:32:16;;;;;;;3.22;2.75;;;;;;;;;;5076469;28;20450;-66
2022/01/13 03:34:42;;;;;;;5.13;3.22;;;;;;;;;;5076228;28;20035;-67
2022/01/13 03:37:08;;;;;;;3.13;2.83;;;;;;;;;;5076524;28;20028;-68
2022/01/13 03:39:34;;;;;;;4.35;2.67;;;;;;;;;;5076304;28;20364;-71
2022/01/13 03:42:03;;;;;;;2.67;2.47;;;;;;;;;;5076644;28;20103;-71
2022/01/13 03:44:29;;;;;;;5.43;2.67;;;;;;;;;;5076171;28;20036;-68
2022/01/13 03:46:59;;;;;;;3.97;2.83;;;;;;;;;;5075138;28;20029;-70
2022/01/13 03:49:25;;;;;;;3.17;2.88;;;;;;;;;;5081208;28;20024;-68
2022/01/13 03:51:55;;;;;;;10.30;2.97;;;;;;;;;;5079593;28;20035;-70
2022/01/13 03:54:35;;;;;;;3.17;2.88;;;;;;;;;;5075732;28;20097;-71
2022/01/13 03:57:11;;;;;;;3.70;2.90;;;;;;;;;;5065632;28;20052;-72
2022/01/13 03:59:38;;;;;;;6.78;2.90;;;;;;;;;;5058463;28;20024;-70
2022/01/13 04:02:04;;;;;;;3.53;2.92;;;;;;;;;;5055836;28;20029;-72
2022/01/13 04:04:32;;;;;;;3.33;2.97;;;;;;;;;;5060597;28;20036;-66
2022/01/13 04:07:08;;;;;;;2.90;2.60;;;;;;;;;;5075905;28;20467;-70
2022/01/13 04:09:34;;;;;;;3.15;2.85;;;;;;;;;;5075736;28;20082;-72
2022/01/13 04:12:04;;;;;;;2.83;2.53;;;;;;;;;;5076011;28;20072;-70
2022/01/13 04:14:56;;;;;;;3.53;2.58;;;;;;;;;;5040775;28;20039;-68
2022/01/13 04:17:23;;;;;;;3.40;3.03;;;;;;;;;;5052347;28;20029;-68
2022/01/13 04:19:49;;;;;;;3.40;2.70;;;;;;;;;;5055564;28;20028;-67
2022/01/13 04:22:16;;;;;;;23.25;3.05;;;;;;;;;;5055491;28;20044;-65
2022/01/13 04:24:46;;;;;;;3.95;3.20;;;;;;;;;;5055026;28;20065;-71
2022/01/13 04:27:21;;;;;;;3.38;2.70;;;;;;;;;;5055585;28;20021;-69
2022/01/13 04:29:49;;;;;;;3.28;2.88;;;;;;;;;;5057631;28;20069;-68
2022/01/13 04:32:15;;;;;;;4.20;3.42;;;;;;;;;;5075584;28;20035;-68
2022/01/13 04:34:41;;;;;;;3.38;3.08;;;;;;;;;;5075479;28;20021;-69
2022/01/13 04:37:07;;;;;;;3.00;2.70;;;;;;;;;;5075313;28;20044;-70
2022/01/13 04:39:35;;;;;;;3.40;3.10;;;;;;;;;;5075100;28;20036;-68
2022/01/13 04:42:01;;;;;;;3.92;3.28;;;;;;;;;;5057271;28;20028;-68
2022/01/13 04:44:27;;;;;;;4.35;3.50;;;;;;;;;;5066750;28;20045;-68
2022/01/13 04:46:54;;;;;;;4.28;3.50;;;;;;;;;;5037218;28;20154;-71
2022/01/13 04:49:20;;;;;;;4.45;3.78;;;;;;;;;;5046054;28;20054;-69
2022/01/13 04:51:47;;;;;;;4.07;3.58;;;;;;;;;;5095579;28;20020;-70
2022/01/13 04:54:13;;;;;;;4.80;3.97;;;;;;;;;;5094819;28;20072;-70
2022/01/13 04:56:43;;;;;;;4.75;3.92;;;;;;;;;;5087107;28;20064;-68
2022/01/13 04:59:10;;;;;;;5.75;4.53;;;;;;;;;;5074942;28;20024;-71
2022/01/13 05:01:36;;;;;;;5.57;4.38;;;;;;;;;;5073543;28;20070;-71
2022/01/13 05:04:03;;;;;;;6.03;4.85;;;;;;;;;;5071610;28;20119;-70
2022/01/13 05:06:29;;;;;;;11.60;5.22;;;;;;;;;;5054295;28;20025;-66
2022/01/13 05:08:55;;;;;;;6.53;4.60;;;;;;;;;;5036179;28;20108;-70
2022/01/13 05:11:21;;;;;;;6.07;4.25;;;;;;;;;;5054092;28;20040;-68
2022/01/13 05:13:47;;;;;;;8.75;5.15;;;;;;;;;;5054057;28;20021;-69
2022/01/13 05:16:48;;;;;;;6.72;5.25;;;;;;;;;;5053989;28;20053;-71
2022/01/13 05:24:09;;;;;;;7.07;4.82;;;;;;;;;;5054001;28;20055;-72
2022/01/13 05:26:35;;;;;;;7.15;4.93;;;;;;;;;;5053777;28;20056;-69
2022/01/13 05:29:01;;;;;;;5.40;4.20;;;;;;;;;;5053487;28;20454;-71
2022/01/13 05:31:27;;;;;;;6.30;5.22;;;;;;;;;;5067197;28;20463;-69
2022/01/13 05:33:53;;;;;;;7.28;5.03;;;;;;;;;;5074264;28;20032;-70
2022/01/13 05:36:19;;;;;;;6.30;4.90;;;;;;;;;;5073744;28;20039;-70
2022/01/13 05:38:45;;;;;;;7.03;4.70;;;;;;;;;;5073263;28;20025;-70
2022/01/13 05:41:11;;;;;;;8.85;5.60;;;;;;;;;;5074260;28;20060;-69
2022/01/13 05:43:37;;;;;;;10.88;5.35;;;;;;;;;;5073828;28;20451;-66
2022/01/13 05:46:03;;;;;;;7.13;5.05;;;;;;;;;;5073620;28;20067;-71
2022/01/13 05:48:31;;;;;;;11.50;5.53;;;;;;;;;;5055475;28;20023;-69
2022/01/13 05:50:57;;;;;;;7.90;4.97;;;;;;;;;;5073261;28;20017;-68
2022/01/13 05:53:23;;;;;;;9.35;6.00;;;;;;;;;;5067633;28;20076;-70
2022/01/13 05:55:49;;;;;;;7.13;5.72;;;;;;;;;;5073483;28;20051;-70
2022/01/13 05:58:15;;;;;;;7.95;5.82;;;;;;;;;;5073544;28;20052;-69
2022/01/13 06:00:41;;;;;;;10.43;5.88;;;;;;;;;;5055721;28;20040;-70
2022/01/13 06:03:07;;;;;;;6.90;5.30;;;;;;;;;;5073172;28;20032;-70
2022/01/13 06:05:35;;;;;;;9.93;6.25;;;;;;;;;;5073396;28;20166;-71
2022/01/13 06:08:01;;;;;;;10.45;6.05;;;;;;;;;;5062429;28;20032;-69
2022/01/13 06:10:27;;;;;;;11.93;6.38;;;;;;;;;;5073217;28;20029;-70
2022/01/13 06:12:53;;;;;;;7.90;5.50;;;;;;;;;;5054795;28;20533;-69
2022/01/13 06:15:20;;;;;;;9.25;6.22;;;;;;;;;;5073325;28;20112;-67
2022/01/13 06:17:47;;;;;;;7.80;5.85;;;;;;;;;;5073258;28;20063;-70
2022/01/13 06:20:14;;;;;;;7.53;5.55;;;;;;;;;;5072629;28;20071;-69
2022/01/13 06:22:41;;;;;;;8.27;5.93;;;;;;;;;;5073058;28;20029;-70
2022/01/13 06:25:08;;;;;;;23.05;7.82;;;;;;;;;;5073562;28;20031;-68
2022/01/13 06:27:34;;;;;;;21.67;9.02;;;;;;;;;;5055708;28;20380;-70
2022/01/13 06:30:00;;;;;;;36.10;9.68;;;;;;;;;;5055961;28;20028;-76
2022/01/13 06:32:26;;;;;;;24.33;9.40;;;;;;;;;;5074017;28;20043;-75
2022/01/13 06:34:53;;;;;;;42.92;9.77;;;;;;;;;;5073635;28;20037;-70
2022/01/13 06:37:19;;;;;;;53.78;11.00;;;;;;;;;;5072554;28;20029;-72
2022/01/13 06:39:46;;;;;;;42.92;9.18;;;;;;;;;;5073506;28;20146;-72
2022/01/13 06:42:12;;;;;;;49.15;10.80;;;;;;;;;;5073143;28;20498;-73
2022/01/13 06:44:38;;;;;;;39.28;10.32;;;;;;;;;;5072941;28;20052;-72
2022/01/13 06:47:05;;;;;;;35.90;10.30;;;;;;;;;;5055206;28;20020;-72
2022/01/13 06:49:31;;;;;;;34.97;8.95;;;;;;;;;;5073398;28;20028;-69
2022/01/13 06:51:57;;;;;;;25.95;8.93;;;;;;;;;;5073103;28;20028;-72
2022/01/13 06:54:23;;;;;;;16.92;8.75;;;;;;;;;;5072712;28;20084;-70
2022/01/13 06:56:49;;;;;;;23.90;9.10;;;;;;;;;;5072659;28;20163;-74
2022/01/13 06:59:15;;;;;;;29.58;8.43;;;;;;;;;;5073084;28;20039;-71
2022/01/13 07:01:42;;;;;;;18.60;8.18;;;;;;;;;;5073169;28;20480;-71
2022/01/13 07:04:12;;;;;;;26.70;8.82;;;;;;;;;;5054094;28;20074;-71
2022/01/13 07:06:39;;;;;;;24.90;8.80;;;;;;;;;;5055053;28;20029;-68
2022/01/13 07:09:06;;;;;;;26.98;8.32;;;;;;;;;;5072837;28;20039;-68
2022/01/13 07:11:33;;;;;;;21.92;8.00;;;;;;;;;;5054869;28;20502;-70
2022/01/13 07:13:59;;;;;;;16.65;8.45;;;;;;;;;;5072683;28;20027;-70
2022/01/13 07:16:25;;;;;;;20.55;8.13;;;;;;;;;;5073092;28;20024;-70
2022/01/13 07:18:51;;;;;;;14.27;7.30;;;;;;;;;;5072140;28;20024;-67
2022/01/13 07:21:19;;;;;;;16.95;7.57;;;;;;;;;;5071506;28;20033;-68
2022/01/13 07:23:45;;;;;;;15.35;8.18;;;;;;;;;;5072546;28;20383;-68
2022/01/13 07:26:11;;;;;;;17.33;8.60;;;;;;;;;;5072380;28;20016;-67
2022/01/13 07:28:37;;;;;;;18.67;7.82;;;;;;;;;;5072686;28;20060;-68
2022/01/13 07:31:03;;;;;;;13.40;8.00;;;;;;;;;;5072372;28;20067;-68
2022/01/13 07:33:29;;;;;;;11.25;6.85;;;;;;;;;;5054724;28;20017;-68
2022/01/13 07:35:55;;;;;;;15.57;7.70;;;;;;;;;;5072547;28;20108;-69
2022/01/13 07:38:21;;;;;;;12.05;7.80;;;;;;;;;;5071265;28;20060;-71
2022/01/13 07:40:47;;;;;;;10.80;7.22;;;;;;;;;;5072607;28;20033;-70
2022/01/13 07:43:16;;;;;;;11.90;7.13;;;;;;;;;;5072359;28;20082;-72
2022/01/13 07:45:42;;;;;;;14.45;7.20;;;;;;;;;;5072667;28;20021;-72
2022/01/13 07:48:09;;;;;;;12.82;7.35;;;;;;;;;;5066350;28;20046;-69
2022/01/13 07:50:35;;;;;;;13.10;7.72;;;;;;;;;;5059529;28;20452;-69
2022/01/13 07:53:01;;;;;;;11.07;7.40;;;;;;;;;;5052337;28;20064;-70
2022/01/13 07:55:27;;;;;;;15.90;7.97;;;;;;;;;;5052243;28;20033;-72
2022/01/13 07:57:53;;;;;;;15.48;7.72;;;;;;;;;;5052374;28;20036;-78
2022/01/13 08:00:20;;;;;;;12.75;7.82;;;;;;;;;;5052723;28;20364;-77
2022/01/13 08:02:46;;;;;;;15.07;7.57;;;;;;;;;;5055784;28;20372;-71
2022/01/13 08:05:12;;;;;;;16.50;8.05;;;;;;;;;;5068275;28;20031;-70
2022/01/13 08:07:38;;;;;;;16.33;7.35;;;;;;;;;;5075730;28;20025;-73
2022/01/13 08:10:04;;;;;;;11.93;7.93;;;;;;;;;;5076038;28;20038;-73
2022/01/13 08:12:30;;;;;;;11.93;7.55;;;;;;;;;;5076080;28;20052;-69
2022/01/13 08:14:56;;;;;;;10.30;6.43;;;;;;;;;;5059386;28;20109;-69
2022/01/13 08:20:08;;;;;;;16.10;8.05;;;;;;;;;;5076079;28;20031;-72
2022/01/13 08:22:34;;;;;;;11.27;7.45;;;;;;;;;;5075558;28;20029;-69
2022/01/13 08:25:00;;;;;;;12.27;7.07;;;;;;;;;;5057326;28;20035;-74
2022/01/13 08:27:26;;;;;;;15.63;7.45;;;;;;;;;;5074772;28;20024;-73
2022/01/13 08:29:52;;;;;;;10.32;7.03;;;;;;;;;;5074974;28;20024;-73
2022/01/13 08:32:19;;;;;;;11.05;7.00;;;;;;;;;;5075187;28;20128;-68
2022/01/13 08:34:45;;;;;;;10.43;7.43;;;;;;;;;;5074121;28;20079;-73
2022/01/13 08:37:11;;;;;;;9.65;7.22;;;;;;;;;;5075206;28;20028;-72
2022/01/13 08:39:44;;;;;;;11.48;7.78;;;;;;;;;;5057017;28;20056;-72
2022/01/13 08:42:11;;;;;;;10.05;6.80;;;;;;;;;;5075101;28;20471;-73
2022/01/13 08:44:37;;;;;;;12.82;6.97;;;;;;;;;;5075199;28;20068;-67
2022/01/13 08:47:03;;;;;;;11.52;7.72;;;;;;;;;;5056563;28;20535;-67
2022/01/13 08:49:29;;;;;;;13.05;7.43;;;;;;;;;;5075948;28;20074;-66
2022/01/13 08:51:58;;;;;;;11.18;7.53;;;;;;;;;;5056760;28;20040;-68
2022/01/13 08:54:24;;;;;;;10.30;7.18;;;;;;;;;;5070769;28;20040;-70
2022/01/13 08:56:50;;;;;;;10.48;7.65;;;;;;;;;;5073729;28;20154;-70
2022/01/13 08:59:18;;;;;;;13.75;7.75;;;;;;;;;;5062972;28;20025;-66
2022/01/13 09:01:44;;;;;;;10.25;7.57;;;;;;;;;;5056261;28;20480;-71
2022/01/13 09:04:10;;;;;;;12.07;7.63;;;;;;;;;;5073699;28;20467;-71
2022/01/13 09:06:36;;;;;;;11.15;7.20;;;;;;;;;;5073894;28;20020;-69
2022/01/13 09:09:02;;;;;;;12.93;7.38;;;;;;;;;;5073393;28;20487;-71
2022/01/13 09:11:29;;;;;;;9.43;6.75;;;;;;;;;;5073841;28;20024;-67
2022/01/13 09:13:58;;;;;;;11.55;7.50;;;;;;;;;;5056055;28;20044;-71
2022/01/13 09:16:26;;;;;;;13.45;7.80;;;;;;;;;;5074145;28;20040;-68
2022/01/13 09:21:22;;;;;;;11.23;7.10;;;;;;;;;;5073935;28;20036;-70
2022/01/13 09:23:48;;;;;;;11.00;7.57;;;;;;;;;;5073973;28;20036;-71
2022/01/13 09:26:14;;;;;;;8.95;7.13;;;;;;;;;;5069543;28;20040;-72
2022/01/13 09:28:42;;;;;;;10.50;7.18;;;;;;;;;;5068679;28;20041;-71
2022/01/13 09:31:11;;;;;;;10.43;7.07;;;;;;;;;;5054010;28;20104;-71
2022/01/13 09:33:37;;;;;;;12.90;7.50;;;;;;;;;;5035244;28;20017;-68
2022/01/13 09:36:07;;;;;;;12.00;7.80;;;;;;;;;;5067466;28;20035;-69
2022/01/13 09:38:33;;;;;;;11.60;6.88;;;;;;;;;;5072419;28;20032;-68
2022/01/13 09:40:59;;;;;;;13.15;7.45;;;;;;;;;;5073392;28;20037;-64
2022/01/13 09:43:26;;;;;;;11.75;7.78;;;;;;;;;;5073585;28;20029;-68
2022/01/13 09:45:53;;;;;;;12.07;7.28;;;;;;;;;;5073723;28;20032;-71
2022/01/13 09:48:19;;;;;;;13.82;8.13;;;;;;;;;;5073393;28;20074;-72
2022/01/13 09:50:46;;;;;;;12.68;7.80;;;;;;;;;;5073329;28;20486;-71
2022/01/13 09:53:12;;;;;;;11.25;7.75;;;;;;;;;;5073396;28;20181;-72
2022/01/13 09:55:39;;;;;;;10.50;6.97;;;;;;;;;;5073407;28;20252;-73
2022/01/13 09:58:10;;;;;;;14.65;8.13;;;;;;;;;;5061979;28;20024;-71
2022/01/13 10:00:36;;;;;;;13.82;8.10;;;;;;;;;;5035478;28;20021;-72
2022/01/13 10:03:09;;;;;;;12.50;7.90;;;;;;;;;;5035274;28;20028;-71
2022/01/13 10:05:37;;;;;;;;;;;;;;;;;;5053933;28;20025;-71
2022/01/13 10:08:03;;;;;;;11.10;7.55;;;;;;;;;;5035330;28;19995;-71
2022/01/13 10:10:31;;;;;;;12.52;7.80;;;;;;;;;;5053170;28;20502;-71
2022/01/13 10:13:02;;;;;;;12.13;7.55;;;;;;;;;;5053154;28;20025;-71
2022/01/13 10:18:36;;;;;;;12.75;7.47;;;;;;;;;;5053010;28;20053;-72
2022/01/13 10:21:06;;;;;;;12.98;8.10;;;;;;;;;;5035151;28;20380;-72
2022/01/13 10:23:33;;;;;;;12.63;8.43;;;;;;;;;;5038468;28;20032;-70
2022/01/13 10:26:08;;;;;;;14.38;7.93;;;;;;;;;;5072578;28;20106;-71
2022/01/13 10:28:34;;;;;;;16.95;8.32;;;;;;;;;;5058470;28;20338;-71
2022/01/13 10:31:00;;;;;;;14.77;8.10;;;;;;;;;;5052874;28;20028;-72
2022/01/13 10:33:30;;;;;;;10.60;7.35;;;;;;;;;;5034853;28;20032;-72
2022/01/13 10:36:05;;;;;;;12.50;7.95;;;;;;;;;;5052641;28;20478;-72
2022/01/13 10:38:50;;;;;;;12.07;7.70;;;;;;;;;;5052663;28;20025;-69
2022/01/13 10:41:36;;;;;;;11.98;8.00;;;;;;;;;;5052722;28;20029;-72
2022/01/13 10:44:12;;;;;;;11.32;7.57;;;;;;;;;;5052696;28;20044;-72
2022/01/13 10:46:56;;;;;;;12.73;7.43;;;;;;;;;;5052733;28;20020;-72
2022/01/13 10:49:36;;;;;;;12.20;7.75;;;;;;;;;;5034437;28;20384;-71
2022/01/13 10:52:21;;;;;;;11.77;7.60;;;;;;;;;;5034428;28;20032;-71
2022/01/13 10:54:47;;;;;;;14.02;7.85;;;;;;;;;;5034474;28;20060;-74
2022/01/13 10:57:17;;;;;;;12.25;7.97;;;;;;;;;;5056964;28;20016;-73
2022/01/13 10:59:43;;;;;;;12.38;7.65;;;;;;;;;;5072966;28;20024;-71
2022/01/13 11:02:10;;;;;;;14.77;8.13;;;;;;;;;;5071853;28;20020;-72
2022/01/13 11:04:36;;;;;;;12.60;8.27;;;;;;;;;;5063270;28;20120;-67
2022/01/13 11:07:15;;;;;;;13.95;8.13;;;;;;;;;;5067266;28;20031;-70
2022/01/13 11:09:42;;;;;;;12.88;7.72;;;;;;;;;;5064934;28;20029;-71
2022/01/13 11:12:13;;;;;;;14.02;8.38;;;;;;;;;;5051099;28;20029;-65
2022/01/13 11:14:45;;;;;;;13.95;7.90;;;;;;;;;;5052146;28;20025;-68
2022/01/13 11:17:11;;;;;;;13.20;7.82;;;;;;;;;;5036056;28;20056;-67
2022/01/13 11:19:40;;;;;;;12.45;8.18;;;;;;;;;;5052059;28;20025;-66
2022/01/13 11:22:06;;;;;;;13.15;7.97;;;;;;;;;;5034273;28;20021;-71
2022/01/13 11:24:32;;;;;;;11.27;7.40;;;;;;;;;;5034114;28;20043;-67
2022/01/13 11:27:00;;;;;;;15.20;8.95;;;;;;;;;;5054540;28;20100;-70
2022/01/13 11:29:26;;;;;;;17.20;7.95;;;;;;;;;;5073327;28;20028;-71
2022/01/13 11:31:52;;;;;;;12.63;7.88;;;;;;;;;;5073056;28;20077;-69
2022/01/13 11:34:18;;;;;;;13.23;7.90;;;;;;;;;;5071594;28;20032;-71
2022/01/13 11:36:45;;;;;;;13.25;8.18;;;;;;;;;;5085330;28;20036;-71
2022/01/13 11:39:11;;;;;;;13.55;8.50;;;;;;;;;;5082779;28;20027;-71
2022/01/13 11:41:55;;;;;;;14.40;8.73;;;;;;;;;;5084533;28;20020;-71
2022/01/13 11:44:22;;;;;;;11.88;7.95;;;;;;;;;;5058968;28;20551;-71
2022/01/13 11:46:49;;;;;;;12.48;7.90;;;;;;;;;;5084685;28;20141;-70
2022/01/13 11:49:20;;;;;;;11.35;8.15;;;;;;;;;;5075060;28;20024;-71
2022/01/13 11:51:56;;;;;;;15.70;8.57;;;;;;;;;;5086080;28;20161;-70
2022/01/13 11:54:26;;;;;;;14.57;8.02;;;;;;;;;;5064547;28;20041;-69
2022/01/13 11:57:13;;;;;;;13.40;8.00;;;;;;;;;;5053556;28;20024;-71
2022/01/13 11:59:40;;;;;;;13.57;8.43;;;;;;;;;;5056303;28;20030;-73
2022/01/13 12:02:28;;;;;;;14.50;8.02;;;;;;;;;;5057420;28;20044;-72
2022/01/13 12:05:05;;;;;;;13.70;8.07;;;;;;;;;;5075298;28;20115;-74
2022/01/13 12:07:38;;;;;;;13.10;8.27;;;;;;;;;;5071070;28;20033;-73
2022/01/13 12:10:06;;;;;;;12.50;8.35;;;;;;;;;;5059102;28;20037;-69
2022/01/13 12:12:33;;;;;;;17.67;8.50;;;;;;;;;;5067134;28;20032;-67
2022/01/13 12:15:16;;;;;;;22.48;8.40;;;;;;;;;;5062928;28;20021;-68
2022/01/13 12:17:49;;;;;;;14.52;7.88;;;;;;;;;;5059947;28;20037;-71
2022/01/13 12:20:26;;;;;;;23.00;9.23;;;;;;;;;;5051913;28;20072;-67
2022/01/13 12:23:03;;;;;;;12.85;8.13;;;;;;;;;;5054153;28;20454;-70
2022/01/13 12:25:33;;;;;;;14.73;8.15;;;;;;;;;;5065233;28;20079;-73
2022/01/13 12:28:10;;;;;;;14.32;8.20;;;;;;;;;;5065605;28;20031;-71
2022/01/13 12:30:37;;;;;;;13.95;8.77;;;;;;;;;;5065652;28;20017;-74
2022/01/13 12:33:06;;;;;;;17.42;9.00;;;;;;;;;;5062590;28;20013;-72
2022/01/13 12:35:38;;;;;;;12.32;7.72;;;;;;;;;;5061787;28;20017;-72
2022/01/13 12:38:07;;;;;;;11.27;8.37;;;;;;;;;;5067805;28;20028;-72
2022/01/13 12:40:41;;;;;;;19.10;8.30;;;;;;;;;;5064330;28;20103;-70
2022/01/13 12:43:22;;;;;;;16.75;9.88;;;;;;;;;;5069140;28;20060;-73
2022/01/13 12:45:48;;;;;;;19.77;11.30;;;;;;;;;;5060648;28;20063;-73
2022/01/13 12:48:14;;;;;;;57.17;18.63;;;;;;;;;;5073842;28;20025;-73
2022/01/13 12:50:47;;;;;;;38.08;15.32;;;;;;;;;;5064254;28;20063;-79
2022/01/13 12:53:19;;;;;;;42.10;19.15;;;;;;;;;;5066452;28;20055;-81
2022/01/13 12:55:54;;;;;;;48.45;21.35;;;;;;;;;;5085070;28;20024;-77
2022/01/13 12:58:21;;;;;;;50.20;22.23;;;;;;;;;;5087305;28;20020;-73
2022/01/13 13:00:47;;;;;;;55.83;19.90;;;;;;;;;;5062632;28;20033;-71
2022/01/13 13:03:13;;;;;;;39.42;20.85;;;;;;;;;;5083624;28;20499;-74
2022/01/13 13:05:57;;;;;;;42.35;18.83;;;;;;;;;;5095434;28;20584;-75
2022/01/13 13:08:25;;;;;;;31.90;18.20;;;;;;;;;;5086332;28;20095;-73
2022/01/13 13:10:53;;;;;;;37.85;19.73;;;;;;;;;;5080691;28;20023;-74
2022/01/13 13:13:20;;;;;;;41.42;18.10;;;;;;;;;;5086926;28;20391;-72
2022/01/13 13:15:54;;;;;;;33.28;17.05;;;;;;;;;;5053525;28;20025;-73
2022/01/13 13:18:22;;;;;;;42.75;18.02;;;;;;;;;;5072873;28;20021;-72
2022/01/13 13:20:48;;;;;;;37.70;17.65;;;;;;;;;;5076236;28;20089;-72
2022/01/13 13:23:16;;;;;;;35.05;17.55;;;;;;;;;;5055886;28;20036;-73
2022/01/13 13:25:42;;;;;;;37.03;16.45;;;;;;;;;;5073373;28;20048;-71
2022/01/13 13:28:22;;;;;;;27.58;16.67;;;;;;;;;;5075129;28;20024;-75
2022/01/13 13:30:56;;;;;;;35.95;17.45;;;;;;;;;;5056982;28;20024;-74
2022/01/13 13:33:32;;;;;;;29.50;15.82;;;;;;;;;;5056432;28;20032;-70
2022/01/13 13:35:59;;;;;;;29.00;15.10;;;;;;;;;;5074860;28;20030;-71
2022/01/13 13:38:25;;;;;;;24.85;14.80;;;;;;;;;;5074695;28;20025;-74
2022/01/13 13:40:51;;;;;;;29.63;14.40;;;;;;;;;;5093726;28;20039;-73
2022/01/13 13:43:17;;;;;;;28.00;12.75;;;;;;;;;;5076806;28;20032;-70
2022/01/13 13:45:43;;;;;;;28.48;14.10;;;;;;;;;;5076502;28;20036;-74
2022/01/13 13:48:09;;;;;;;26.10;14.00;;;;;;;;;;5094933;28;20466;-76
2022/01/13 13:50:35;;;;;;;28.33;13.95;;;;;;;;;;5076604;28;20162;-76
2022/01/13 13:53:28;;;;;;;21.27;13.05;;;;;;;;;;5094408;28;20048;-74
2022/01/13 13:55:56;;;;;;;25.02;12.45;;;;;;;;;;5076715;28;20036;-68
2022/01/13 13:58:22;;;;;;;21.08;11.50;;;;;;;;;;5081551;28;20035;-68
2022/01/13 14:00:48;;;;;;;26.63;12.05;;;;;;;;;;5086036;28;20020;-70
2022/01/13 14:03:21;;;;;;;28.75;11.00;;;;;;;;;;5071668;28;20044;-68
2022/01/13 14:05:47;;;;;;;26.27;10.43;;;;;;;;;;5081543;28;20024;-66
2022/01/13 14:08:13;;;;;;;21.05;10.82;;;;;;;;;;5087388;28;20047;-69
2022/01/13 14:10:39;;;;;;;24.00;10.20;;;;;;;;;;5077127;28;20463;-67
2022/01/13 14:13:09;;;;;;;23.00;10.43;;;;;;;;;;5075000;28;20447;-71
2022/01/13 14:15:36;;;;;;;21.83;9.77;;;;;;;;;;5072093;28;20027;-68
2022/01/13 14:18:09;;;;;;;17.48;9.32;;;;;;;;;;5085506;28;20024;-69
2022/01/13 14:20:44;;;;;;;17.25;8.80;;;;;;;;;;5085319;28;20020;-71
2022/01/13 14:23:15;;;;;;;15.35;9.18;;;;;;;;;;5093001;28;20111;-69
2022/01/13 14:25:43;;;;;;;15.63;8.25;;;;;;;;;;5092885;28;20062;-73
2022/01/13 14:28:10;;;;;;;14.93;8.10;;;;;;;;;;5092938;28;20360;-73
2022/01/13 14:30:39;;;;;;;14.07;7.75;;;;;;;;;;5093449;28;20031;-68
2022/01/13 14:33:32;;;;;;;14.25;8.00;;;;;;;;;;5093407;28;20058;-70
2022/01/13 14:35:59;;;;;;;;;;;;;;;;;;5091233;28;20032;-70
2022/01/13 14:38:33;;;;;;;12.73;7.28;;;;;;;;;;5075018;28;19946;-72
2022/01/13 14:40:59;;;;;;;12.52;7.55;;;;;;;;;;5092786;28;20024;-67
2022/01/13 14:43:25;;;;;;;17.73;7.80;;;;;;;;;;5074787;28;20085;-71
2022/01/13 14:46:11;;;;;;;17.75;7.35;;;;;;;;;;5074798;28;20016;-68
2022/01/13 14:48:40;;;;;;;13.77;7.38;;;;;;;;;;5092574;28;20024;-66
2022/01/13 14:51:10;;;;;;;18.45;7.50;;;;;;;;;;5092376;28;20573;-70
2022/01/13 14:53:36;;;;;;;21.40;8.75;;;;;;;;;;5092329;28;20055;-71
2022/01/13 14:56:06;;;;;;;10.45;7.10;;;;;;;;;;5092660;28;20028;-70
2022/01/13 14:58:34;;;;;;;13.88;8.10;;;;;;;;;;5092650;28;20028;-70
2022/01/13 15:01:01;;;;;;;13.00;7.90;;;;;;;;;;5074282;28;20488;-71
2022/01/13 15:03:27;;;;;;;16.42;7.50;;;;;;;;;;5092619;28;20064;-71
2022/01/13 15:05:54;;;;;;;17.88;7.78;;;;;;;;;;5092534;28;20032;-70
2022/01/13 15:08:20;;;;;;;13.73;7.32;;;;;;;;;;5074437;28;20032;-70
2022/01/13 15:10:46;;;;;;;11.90;7.03;;;;;;;;;;5088735;28;20032;-70
2022/01/13 15:13:12;;;;;;;11.02;7.88;;;;;;;;;;5038443;28;20392;-70